sensor_id;sensor_type;location;lat;lon;timestamp;pressure;altitude;pressure_sealevel;temperature;humidity
40948;BME280;49382;-25.924;28.194;2023-03-22T00:00:26;85199.21;;;23.03;35.08
40948;BME280;49382;-25.924;28.194;2023-03-22T00:02:51;85199.97;;;23.64;33.96
40948;BME280;49382;-25.924;28.194;2023-03-22T00:05:16;85199.18;;;22.93;34.62
40948;BME280;49382;-25.924;28.194;2023-03-22T00:07:41;85196.93;;;23.61;33.70
40948;BME280;49382;-25.924;28.194;2023-03-22T00:10:07;85198.56;;;22.99;34.41
40948;BME280;49382;-25.924;28.194;2023-03-22T00:12:32;85202.58;;;23.32;34.05
40948;BME280;49382;-25.924;28.194;2023-03-22T00:14:58;85204.86;;;23.19;34.22
40948;BME280;49382;-25.924;28.194;2023-03-22T00:17:24;85198.34;;;22.12;35.52
40948;BME280;49382;-25.924;28.194;2023-03-22T00:19:49;85197.29;;;22.10;35.62
40948;BME280;49382;-25.924;28.194;2023-03-22T00:22:15;85199.52;;;22.73;34.87
40948;BME280;49382;-25.924;28.194;2023-03-22T00:24:40;85200.53;;;22.85;35.07
40948;BME280;49382;-25.924;28.194;2023-03-22T00:27:06;85208.66;;;22.01;36.04
40948;BME280;49382;-25.924;28.194;2023-03-22T00:29:32;85209.72;;;23.89;34.03
40948;BME280;49382;-25.924;28.194;2023-03-22T00:31:57;85210.81;;;23.81;33.80
40948;BME280;49382;-25.924;28.194;2023-03-22T00:34:23;85209.44;;;20.83;37.55
40948;BME280;49382;-25.924;28.194;2023-03-22T00:36:48;85212.00;;;22.21;36.07
40948;BME280;49382;-25.924;28.194;2023-03-22T00:39:14;85212.35;;;21.15;37.09
40948;BME280;49382;-25.924;28.194;2023-03-22T00:41:40;85216.42;;;22.05;36.51
40948;BME280;49382;-25.924;28.194;2023-03-22T00:44:06;85213.81;;;23.07;35.03
40948;BME280;49382;-25.924;28.194;2023-03-22T00:46:31;85211.36;;;22.73;35.05
40948;BME280;49382;-25.924;28.194;2023-03-22T00:48:56;85208.99;;;22.66;34.97
40948;BME280;49382;-25.924;28.194;2023-03-22T00:51:22;85214.75;;;21.98;35.75
40948;BME280;49382;-25.924;28.194;2023-03-22T00:53:47;85216.05;;;23.76;33.42
40948;BME280;49382;-25.924;28.194;2023-03-22T00:56:13;85218.94;;;21.99;35.94
40948;BME280;49382;-25.924;28.194;2023-03-22T00:58:38;85213.68;;;22.67;34.57
40948;BME280;49382;-25.924;28.194;2023-03-22T01:01:03;85211.22;;;22.69;34.27
40948;BME280;49382;-25.924;28.194;2023-03-22T01:03:28;85212.98;;;21.98;35.20
40948;BME280;49382;-25.924;28.194;2023-03-22T01:05:54;85211.10;;;20.67;36.63
40948;BME280;49382;-25.924;28.194;2023-03-22T01:08:20;85216.28;;;22.09;34.64
40948;BME280;49382;-25.924;28.194;2023-03-22T01:10:47;85215.32;;;22.53;34.27
40948;BME280;49382;-25.924;28.194;2023-03-22T01:13:12;85216.16;;;22.66;34.16
40948;BME280;49382;-25.924;28.194;2023-03-22T01:15:37;85212.85;;;21.72;35.15
40948;BME280;49382;-25.924;28.194;2023-03-22T01:18:03;85208.67;;;20.73;35.99
40948;BME280;49382;-25.924;28.194;2023-03-22T01:20:29;85208.43;;;23.88;32.37
40948;BME280;49382;-25.924;28.194;2023-03-22T01:22:54;85207.00;;;20.79;36.42
40948;BME280;49382;-25.924;28.194;2023-03-22T01:25:20;85209.59;;;19.96;37.33
40948;BME280;49382;-25.924;28.194;2023-03-22T01:27:45;85211.27;;;20.60;36.29
40948;BME280;49382;-25.924;28.194;2023-03-22T01:30:11;85210.94;;;19.89;37.28
40948;BME280;49382;-25.924;28.194;2023-03-22T01:32:36;85212.34;;;22.25;34.88
40948;BME280;49382;-25.924;28.194;2023-03-22T01:35:02;85210.77;;;20.96;35.94
40948;BME280;49382;-25.924;28.194;2023-03-22T01:37:27;85213.15;;;21.73;34.82
40948;BME280;49382;-25.924;28.194;2023-03-22T01:39:53;85213.93;;;22.54;33.95
40948;BME280;49382;-25.924;28.194;2023-03-22T01:42:18;85211.27;;;19.92;37.59
40948;BME280;49382;-25.924;28.194;2023-03-22T01:47:10;85211.14;;;20.81;36.44
40948;BME280;49382;-25.924;28.194;2023-03-22T01:49:36;85209.69;;;19.49;38.86
40948;BME280;49382;-25.924;28.194;2023-03-22T01:52:07;85211.13;;;18.88;39.61
40948;BME280;49382;-25.924;28.194;2023-03-22T01:54:31;85208.38;;;19.65;38.37
40948;BME280;49382;-25.924;28.194;2023-03-22T01:56:53;85213.10;;;21.88;35.22
40948;BME280;49382;-25.924;28.194;2023-03-22T01:59:19;85207.27;;;19.63;39.06
40948;BME280;49382;-25.924;28.194;2023-03-22T02:01:43;85208.73;;;21.32;36.45
40948;BME280;49382;-25.924;28.194;2023-03-22T02:04:11;85210.64;;;21.03;36.41
40948;BME280;49382;-25.924;28.194;2023-03-22T02:06:37;85210.15;;;21.05;37.00
40948;BME280;49382;-25.924;28.194;2023-03-22T02:09:01;85209.73;;;22.12;35.39
40948;BME280;49382;-25.924;28.194;2023-03-22T02:11:31;85209.25;;;21.27;36.29
40948;BME280;49382;-25.924;28.194;2023-03-22T02:14:04;85212.28;;;22.12;35.39
40948;BME280;49382;-25.924;28.194;2023-03-22T02:16:28;85212.32;;;22.68;34.20
40948;BME280;49382;-25.924;28.194;2023-03-22T02:18:53;85215.74;;;22.29;35.17
40948;BME280;49382;-25.924;28.194;2023-03-22T02:21:21;85216.97;;;22.62;35.20
40948;BME280;49382;-25.924;28.194;2023-03-22T02:23:47;85213.14;;;20.39;37.64
40948;BME280;49382;-25.924;28.194;2023-03-22T02:28:34;85210.96;;;22.52;34.83
40948;BME280;49382;-25.924;28.194;2023-03-22T02:33:27;85216.25;;;20.54;37.63
40948;BME280;49382;-25.924;28.194;2023-03-22T02:35:54;85217.89;;;21.15;36.93
40948;BME280;49382;-25.924;28.194;2023-03-22T02:38:21;85221.08;;;21.19;37.17
40948;BME280;49382;-25.924;28.194;2023-03-22T02:40:39;85219.00;;;20.15;38.80
40948;BME280;49382;-25.924;28.194;2023-03-22T02:43:05;85224.97;;;20.90;37.97
40948;BME280;49382;-25.924;28.194;2023-03-22T02:45:31;85221.48;;;19.47;39.82
40948;BME280;49382;-25.924;28.194;2023-03-22T02:47:57;85225.99;;;21.87;36.05
40948;BME280;49382;-25.924;28.194;2023-03-22T02:50:23;85225.25;;;20.25;38.64
40948;BME280;49382;-25.924;28.194;2023-03-22T02:52:46;85226.17;;;21.40;37.19
40948;BME280;49382;-25.924;28.194;2023-03-22T02:55:13;85223.92;;;21.57;36.92
40948;BME280;49382;-25.924;28.194;2023-03-22T02:57:38;85223.51;;;21.67;36.41
40948;BME280;49382;-25.924;28.194;2023-03-22T03:00:00;85222.60;;;22.56;35.17
40948;BME280;49382;-25.924;28.194;2023-03-22T03:02:28;85220.12;;;19.83;39.09
40948;BME280;49382;-25.924;28.194;2023-03-22T03:04:51;85220.32;;;18.53;41.39
40948;BME280;49382;-25.924;28.194;2023-03-22T03:07:19;85223.43;;;19.26;40.43
40948;BME280;49382;-25.924;28.194;2023-03-22T03:09:42;85229.08;;;20.60;38.49
40948;BME280;49382;-25.924;28.194;2023-03-22T03:12:12;85226.50;;;18.54;41.40
40948;BME280;49382;-25.924;28.194;2023-03-22T03:14:32;85232.84;;;19.98;39.87
40948;BME280;49382;-25.924;28.194;2023-03-22T03:17:10;85236.57;;;21.12;37.77
40948;BME280;49382;-25.924;28.194;2023-03-22T03:19:29;85238.55;;;20.20;38.93
40948;BME280;49382;-25.924;28.194;2023-03-22T03:21:54;85245.58;;;21.06;37.79
40948;BME280;49382;-25.924;28.194;2023-03-22T03:24:22;85245.70;;;21.70;36.82
40948;BME280;49382;-25.924;28.194;2023-03-22T03:26:46;85243.35;;;23.33;34.58
40948;BME280;49382;-25.924;28.194;2023-03-22T03:29:13;85249.25;;;23.00;35.16
40948;BME280;49382;-25.924;28.194;2023-03-22T03:31:38;85253.22;;;22.37;36.00
40948;BME280;49382;-25.924;28.194;2023-03-22T03:34:05;85255.64;;;22.70;35.60
40948;BME280;49382;-25.924;28.194;2023-03-22T03:36:25;85255.61;;;22.45;35.87
40948;BME280;49382;-25.924;28.194;2023-03-22T03:38:51;85254.17;;;19.67;40.16
40948;BME280;49382;-25.924;28.194;2023-03-22T03:41:17;85254.12;;;20.37;39.30
40948;BME280;49382;-25.924;28.194;2023-03-22T03:43:41;85259.43;;;21.22;37.75
40948;BME280;49382;-25.924;28.194;2023-03-22T03:46:06;85256.95;;;19.87;39.84
40948;BME280;49382;-25.924;28.194;2023-03-22T03:48:33;85256.15;;;20.26;39.73
40948;BME280;49382;-25.924;28.194;2023-03-22T03:50:58;85255.55;;;20.25;39.41
40948;BME280;49382;-25.924;28.194;2023-03-22T03:53:22;85256.80;;;20.32;39.46
40948;BME280;49382;-25.924;28.194;2023-03-22T03:55:47;85260.53;;;19.59;40.98
40948;BME280;49382;-25.924;28.194;2023-03-22T03:58:13;85259.24;;;19.71;40.61
40948;BME280;49382;-25.924;28.194;2023-03-22T04:00:39;85258.35;;;19.48;41.58
40948;BME280;49382;-25.924;28.194;2023-03-22T04:03:05;85261.55;;;19.42;41.67
40948;BME280;49382;-25.924;28.194;2023-03-22T04:05:31;85261.95;;;19.60;41.64
40948;BME280;49382;-25.924;28.194;2023-03-22T04:07:56;85263.50;;;18.77;43.00
40948;BME280;49382;-25.924;28.194;2023-03-22T04:10:22;85265.96;;;18.94;42.41
40948;BME280;49382;-25.924;28.194;2023-03-22T04:12:48;85271.49;;;19.51;42.02
40948;BME280;49382;-25.924;28.194;2023-03-22T04:15:14;85274.22;;;20.29;40.47
40948;BME280;49382;-25.924;28.194;2023-03-22T04:17:40;85280.74;;;18.91;42.92
40948;BME280;49382;-25.924;28.194;2023-03-22T04:20:07;85281.04;;;18.68;43.52
40948;BME280;49382;-25.924;28.194;2023-03-22T04:24:57;85283.38;;;17.98;45.06
40948;BME280;49382;-25.924;28.194;2023-03-22T04:27:23;85285.55;;;17.66;45.64
40948;BME280;49382;-25.924;28.194;2023-03-22T04:29:49;85288.70;;;18.77;43.99
40948;BME280;49382;-25.924;28.194;2023-03-22T04:32:15;85290.72;;;17.40;46.87
40948;BME280;49382;-25.924;28.194;2023-03-22T04:34:40;85292.34;;;18.57;44.38
40948;BME280;49382;-25.924;28.194;2023-03-22T04:37:06;85295.58;;;18.58;44.67
40948;BME280;49382;-25.924;28.194;2023-03-22T04:39:32;85295.77;;;18.66;44.49
40948;BME280;49382;-25.924;28.194;2023-03-22T04:41:58;85301.71;;;18.57;44.85
40948;BME280;49382;-25.924;28.194;2023-03-22T04:44:23;85305.10;;;20.10;41.64
40948;BME280;49382;-25.924;28.194;2023-03-22T04:46:49;85310.46;;;19.84;41.96
40948;BME280;49382;-25.924;28.194;2023-03-22T04:49:15;85315.23;;;19.95;41.98
40948;BME280;49382;-25.924;28.194;2023-03-22T04:51:41;85316.12;;;20.09;42.17
40948;BME280;49382;-25.924;28.194;2023-03-22T04:54:07;85324.40;;;21.18;40.07
40948;BME280;49382;-25.924;28.194;2023-03-22T04:56:32;85326.93;;;19.62;42.20
40948;BME280;49382;-25.924;28.194;2023-03-22T04:58:58;85332.33;;;18.58;46.54
40948;BME280;49382;-25.924;28.194;2023-03-22T05:01:24;85330.57;;;18.79;45.18
40948;BME280;49382;-25.924;28.194;2023-03-22T05:03:50;85333.33;;;20.56;41.55
40948;BME280;49382;-25.924;28.194;2023-03-22T05:06:15;85335.17;;;20.49;42.12
40948;BME280;49382;-25.924;28.194;2023-03-22T05:08:41;85336.61;;;20.08;43.18
40948;BME280;49382;-25.924;28.194;2023-03-22T05:11:08;85336.35;;;19.88;43.01
40948;BME280;49382;-25.924;28.194;2023-03-22T05:13:33;85342.91;;;22.22;39.10
40948;BME280;49382;-25.924;28.194;2023-03-22T05:15:59;85340.84;;;20.87;40.97
40948;BME280;49382;-25.924;28.194;2023-03-22T05:18:25;85342.34;;;19.44;43.93
40948;BME280;49382;-25.924;28.194;2023-03-22T05:20:50;85342.26;;;19.59;43.32
40948;BME280;49382;-25.924;28.194;2023-03-22T05:23:17;85341.93;;;20.04;43.48
40948;BME280;49382;-25.924;28.194;2023-03-22T05:25:42;85345.29;;;20.84;42.83
40948;BME280;49382;-25.924;28.194;2023-03-22T05:28:07;85343.89;;;22.05;40.41
40948;BME280;49382;-25.924;28.194;2023-03-22T05:30:33;85342.44;;;20.59;42.95
40948;BME280;49382;-25.924;28.194;2023-03-22T05:33:00;85345.81;;;21.59;41.33
40948;BME280;49382;-25.924;28.194;2023-03-22T05:35:25;85342.12;;;20.96;41.81
40948;BME280;49382;-25.924;28.194;2023-03-22T05:37:51;85347.21;;;20.37;44.80
40948;BME280;49382;-25.924;28.194;2023-03-22T05:40:17;85344.55;;;20.29;42.93
40948;BME280;49382;-25.924;28.194;2023-03-22T05:42:42;85346.62;;;21.33;41.62
40948;BME280;49382;-25.924;28.194;2023-03-22T05:45:09;85349.05;;;19.94;44.62
40948;BME280;49382;-25.924;28.194;2023-03-22T05:47:34;85351.14;;;21.00;42.99
40948;BME280;49382;-25.924;28.194;2023-03-22T05:49:59;85354.07;;;21.00;42.80
40948;BME280;49382;-25.924;28.194;2023-03-22T05:52:25;85363.07;;;21.59;42.04
40948;BME280;49382;-25.924;28.194;2023-03-22T05:54:51;85355.69;;;21.06;42.30
40948;BME280;49382;-25.924;28.194;2023-03-22T05:57:17;85357.83;;;21.80;41.22
40948;BME280;49382;-25.924;28.194;2023-03-22T05:59:43;85357.26;;;21.18;42.68
40948;BME280;49382;-25.924;28.194;2023-03-22T06:02:08;85361.39;;;22.07;41.73
40948;BME280;49382;-25.924;28.194;2023-03-22T06:04:34;85360.16;;;21.19;42.33
40948;BME280;49382;-25.924;28.194;2023-03-22T06:07:00;85362.76;;;22.70;40.17
40948;BME280;49382;-25.924;28.194;2023-03-22T06:09:26;85365.66;;;22.79;41.02
40948;BME280;49382;-25.924;28.194;2023-03-22T06:11:52;85366.77;;;22.18;42.29
40948;BME280;49382;-25.924;28.194;2023-03-22T06:14:17;85370.92;;;20.51;46.25
40948;BME280;49382;-25.924;28.194;2023-03-22T06:16:43;85375.71;;;22.10;42.73
40948;BME280;49382;-25.924;28.194;2023-03-22T06:19:09;85377.17;;;22.49;41.55
40948;BME280;49382;-25.924;28.194;2023-03-22T06:21:35;85374.44;;;20.93;42.58
40948;BME280;49382;-25.924;28.194;2023-03-22T06:24:01;85377.13;;;23.11;41.28
40948;BME280;49382;-25.924;28.194;2023-03-22T06:26:26;85379.44;;;22.48;42.31
40948;BME280;49382;-25.924;28.194;2023-03-22T06:28:52;85374.80;;;21.77;44.51
40948;BME280;49382;-25.924;28.194;2023-03-22T06:31:18;85380.44;;;23.80;40.97
40948;BME280;49382;-25.924;28.194;2023-03-22T06:33:44;85376.35;;;25.54;38.03
40948;BME280;49382;-25.924;28.194;2023-03-22T06:36:10;85371.49;;;22.52;42.56
40948;BME280;49382;-25.924;28.194;2023-03-22T06:38:35;85369.31;;;22.89;40.38
40948;BME280;49382;-25.924;28.194;2023-03-22T06:41:01;85370.21;;;26.28;35.69
40948;BME280;49382;-25.924;28.194;2023-03-22T06:43:27;85370.79;;;22.54;40.22
40948;BME280;49382;-25.924;28.194;2023-03-22T06:45:53;85373.74;;;23.07;41.33
40948;BME280;49382;-25.924;28.194;2023-03-22T06:48:18;85373.85;;;21.46;43.61
40948;BME280;49382;-25.924;28.194;2023-03-22T06:50:44;85378.48;;;22.72;41.15
40948;BME280;49382;-25.924;28.194;2023-03-22T06:53:10;85379.94;;;23.67;39.85
40948;BME280;49382;-25.924;28.194;2023-03-22T06:55:36;85382.25;;;22.63;43.53
40948;BME280;49382;-25.924;28.194;2023-03-22T06:58:02;85380.36;;;22.24;43.36
40948;BME280;49382;-25.924;28.194;2023-03-22T07:00:28;85384.50;;;23.72;41.03
40948;BME280;49382;-25.924;28.194;2023-03-22T07:02:53;85385.25;;;21.91;42.07
40948;BME280;49382;-25.924;28.194;2023-03-22T07:05:19;85386.99;;;22.23;41.66
40948;BME280;49382;-25.924;28.194;2023-03-22T07:07:44;85387.84;;;23.73;40.85
40948;BME280;49382;-25.924;28.194;2023-03-22T07:10:10;85387.55;;;22.61;41.68
40948;BME280;49382;-25.924;28.194;2023-03-22T07:12:36;85385.60;;;23.44;40.76
40948;BME280;49382;-25.924;28.194;2023-03-22T07:15:02;85388.72;;;22.69;40.67
40948;BME280;49382;-25.924;28.194;2023-03-22T07:17:27;85392.41;;;23.75;40.44
40948;BME280;49382;-25.924;28.194;2023-03-22T07:19:53;85387.77;;;22.60;41.57
40948;BME280;49382;-25.924;28.194;2023-03-22T07:22:19;85392.81;;;23.28;41.68
40948;BME280;49382;-25.924;28.194;2023-03-22T07:24:44;85387.65;;;24.74;37.70
40948;BME280;49382;-25.924;28.194;2023-03-22T07:27:10;85389.76;;;23.78;40.63
40948;BME280;49382;-25.924;28.194;2023-03-22T07:29:36;85392.18;;;23.86;42.01
40948;BME280;49382;-25.924;28.194;2023-03-22T07:32:02;85386.16;;;24.14;40.31
40948;BME280;49382;-25.924;28.194;2023-03-22T07:34:27;85390.86;;;24.71;39.34
40948;BME280;49382;-25.924;28.194;2023-03-22T07:36:53;85386.93;;;25.36;35.92
40948;BME280;49382;-25.924;28.194;2023-03-22T07:39:19;85387.51;;;24.90;39.53
40948;BME280;49382;-25.924;28.194;2023-03-22T07:41:44;85388.53;;;24.52;40.72
40948;BME280;49382;-25.924;28.194;2023-03-22T07:44:10;85386.19;;;24.68;39.00
40948;BME280;49382;-25.924;28.194;2023-03-22T07:46:36;85384.75;;;24.92;38.86
40948;BME280;49382;-25.924;28.194;2023-03-22T07:49:01;85389.36;;;25.59;38.16
40948;BME280;49382;-25.924;28.194;2023-03-22T07:51:27;85386.34;;;25.76;36.65
40948;BME280;49382;-25.924;28.194;2023-03-22T07:53:53;85386.20;;;25.36;36.70
40948;BME280;49382;-25.924;28.194;2023-03-22T07:56:19;85388.30;;;25.36;37.72
40948;BME280;49382;-25.924;28.194;2023-03-22T07:58:44;85386.00;;;24.91;37.72
40948;BME280;49382;-25.924;28.194;2023-03-22T08:01:10;85387.08;;;24.93;38.37
40948;BME280;49382;-25.924;28.194;2023-03-22T08:03:36;85384.39;;;26.05;37.30
40948;BME280;49382;-25.924;28.194;2023-03-22T08:06:02;85378.26;;;26.98;34.70
40948;BME280;49382;-25.924;28.194;2023-03-22T08:08:27;85382.47;;;26.24;36.28
40948;BME280;49382;-25.924;28.194;2023-03-22T08:10:52;85380.89;;;26.50;34.51
40948;BME280;49382;-25.924;28.194;2023-03-22T08:13:18;85376.32;;;24.80;37.53
40948;BME280;49382;-25.924;28.194;2023-03-22T08:15:44;85373.42;;;27.16;34.62
40948;BME280;49382;-25.924;28.194;2023-03-22T08:18:10;85373.16;;;27.34;32.66
40948;BME280;49382;-25.924;28.194;2023-03-22T08:20:35;85367.39;;;26.01;35.07
40948;BME280;49382;-25.924;28.194;2023-03-22T08:23:01;85365.95;;;25.11;37.88
40948;BME280;49382;-25.924;28.194;2023-03-22T08:25:27;85362.45;;;25.74;35.21
40948;BME280;49382;-25.924;28.194;2023-03-22T08:27:53;85360.50;;;25.71;35.24
40948;BME280;49382;-25.924;28.194;2023-03-22T08:30:18;85363.22;;;26.28;35.51
40948;BME280;49382;-25.924;28.194;2023-03-22T08:32:44;85353.98;;;25.57;35.43
40948;BME280;49382;-25.924;28.194;2023-03-22T08:35:10;85352.66;;;25.10;37.31
40948;BME280;49382;-25.924;28.194;2023-03-22T08:37:36;85350.94;;;26.16;38.03
40948;BME280;49382;-25.924;28.194;2023-03-22T08:40:01;85353.46;;;25.94;35.85
40948;BME280;49382;-25.924;28.194;2023-03-22T08:42:27;85350.70;;;25.98;37.59
40948;BME280;49382;-25.924;28.194;2023-03-22T08:44:52;85344.22;;;26.43;33.62
40948;BME280;49382;-25.924;28.194;2023-03-22T08:47:18;85350.26;;;27.96;34.33
40948;BME280;49382;-25.924;28.194;2023-03-22T08:49:44;85345.25;;;27.59;31.94
40948;BME280;49382;-25.924;28.194;2023-03-22T08:52:09;85341.47;;;27.50;32.08
40948;BME280;49382;-25.924;28.194;2023-03-22T08:54:35;85338.88;;;26.48;34.10
40948;BME280;49382;-25.924;28.194;2023-03-22T08:57:02;85336.46;;;24.93;34.77
40948;BME280;49382;-25.924;28.194;2023-03-22T08:59:27;85335.46;;;26.81;34.83
40948;BME280;49382;-25.924;28.194;2023-03-22T09:01:53;85334.62;;;26.39;34.38
40948;BME280;49382;-25.924;28.194;2023-03-22T09:04:18;85332.71;;;26.15;35.74
40948;BME280;49382;-25.924;28.194;2023-03-22T09:06:44;85328.85;;;25.68;35.84
40948;BME280;49382;-25.924;28.194;2023-03-22T09:09:10;85328.72;;;25.66;35.76
40948;BME280;49382;-25.924;28.194;2023-03-22T09:11:35;85324.22;;;26.40;35.49
40948;BME280;49382;-25.924;28.194;2023-03-22T09:14:01;85322.15;;;26.88;32.59
40948;BME280;49382;-25.924;28.194;2023-03-22T09:16:27;85318.66;;;26.00;36.02
40948;BME280;49382;-25.924;28.194;2023-03-22T09:18:53;85322.51;;;26.96;33.55
40948;BME280;49382;-25.924;28.194;2023-03-22T09:21:18;85315.74;;;27.96;33.51
40948;BME280;49382;-25.924;28.194;2023-03-22T09:23:44;85321.51;;;27.53;37.12
40948;BME280;49382;-25.924;28.194;2023-03-22T09:26:10;85319.21;;;28.41;30.95
40948;BME280;49382;-25.924;28.194;2023-03-22T09:28:36;85315.98;;;26.64;31.15
40948;BME280;49382;-25.924;28.194;2023-03-22T09:31:05;85308.94;;;26.48;34.71
40948;BME280;49382;-25.924;28.194;2023-03-22T09:33:27;85305.63;;;26.44;35.33
40948;BME280;49382;-25.924;28.194;2023-03-22T09:35:53;85306.14;;;26.16;35.06
40948;BME280;49382;-25.924;28.194;2023-03-22T09:38:18;85300.67;;;26.54;33.78
40948;BME280;49382;-25.924;28.194;2023-03-22T09:40:51;85297.17;;;26.08;32.48
40948;BME280;49382;-25.924;28.194;2023-03-22T09:43:12;85296.84;;;27.93;30.52
40948;BME280;49382;-25.924;28.194;2023-03-22T09:45:38;85297.11;;;28.83;30.82
40948;BME280;49382;-25.924;28.194;2023-03-22T09:48:04;85293.42;;;26.94;30.97
40948;BME280;49382;-25.924;28.194;2023-03-22T09:50:30;85286.17;;;26.56;29.71
40948;BME280;49382;-25.924;28.194;2023-03-22T09:52:53;85305.00;;;27.04;29.62
40948;BME280;49382;-25.924;28.194;2023-03-22T09:55:21;85291.72;;;28.27;29.28
40948;BME280;49382;-25.924;28.194;2023-03-22T09:57:48;85285.29;;;28.04;28.88
40948;BME280;49382;-25.924;28.194;2023-03-22T10:00:17;85281.37;;;27.63;29.10
40948;BME280;49382;-25.924;28.194;2023-03-22T10:02:45;85261.95;;;25.56;27.10
40948;BME280;49382;-25.924;28.194;2023-03-22T10:05:11;85276.48;;;27.39;25.75
40948;BME280;49382;-25.924;28.194;2023-03-22T10:07:32;85266.77;;;27.77;25.52
40948;BME280;49382;-25.924;28.194;2023-03-22T10:10:03;85265.91;;;28.30;24.10
40948;BME280;49382;-25.924;28.194;2023-03-22T10:12:23;85253.85;;;29.49;24.05
40948;BME280;49382;-25.924;28.194;2023-03-22T10:14:49;85259.33;;;28.44;24.98
40948;BME280;49382;-25.924;28.194;2023-03-22T10:17:12;85257.61;;;27.25;26.77
40948;BME280;49382;-25.924;28.194;2023-03-22T10:19:44;85251.85;;;28.32;26.63
40948;BME280;49382;-25.924;28.194;2023-03-22T10:22:03;85247.63;;;27.70;29.54
40948;BME280;49382;-25.924;28.194;2023-03-22T10:24:30;85242.97;;;26.90;29.24
40948;BME280;49382;-25.924;28.194;2023-03-22T10:26:53;85238.86;;;27.66;26.77
40948;BME280;49382;-25.924;28.194;2023-03-22T10:29:24;85237.30;;;27.03;26.85
40948;BME280;49382;-25.924;28.194;2023-03-22T10:31:44;85228.18;;;26.15;28.15
40948;BME280;49382;-25.924;28.194;2023-03-22T10:34:17;85226.00;;;27.23;26.24
40948;BME280;49382;-25.924;28.194;2023-03-22T10:36:37;85223.72;;;28.46;25.20
40948;BME280;49382;-25.924;28.194;2023-03-22T10:39:04;85215.49;;;26.50;27.21
40948;BME280;49382;-25.924;28.194;2023-03-22T10:41:28;85214.42;;;26.62;27.58
40948;BME280;49382;-25.924;28.194;2023-03-22T10:43:55;85211.89;;;28.92;27.85
40948;BME280;49382;-25.924;28.194;2023-03-22T10:46:21;85219.51;;;28.43;27.57
40948;BME280;49382;-25.924;28.194;2023-03-22T10:48:45;85208.28;;;25.78;27.39
40948;BME280;49382;-25.924;28.194;2023-03-22T10:51:17;85202.28;;;26.31;27.51
40948;BME280;49382;-25.924;28.194;2023-03-22T10:53:38;85209.09;;;26.41;28.09
40948;BME280;49382;-25.924;28.194;2023-03-22T10:56:02;85205.12;;;26.63;26.21
40948;BME280;49382;-25.924;28.194;2023-03-22T10:58:31;85197.08;;;27.18;25.97
40948;BME280;49382;-25.924;28.194;2023-03-22T11:00:55;85196.50;;;27.78;26.43
40948;BME280;49382;-25.924;28.194;2023-03-22T11:03:27;85193.33;;;25.38;29.62
40948;BME280;49382;-25.924;28.194;2023-03-22T11:08:13;85186.25;;;27.57;26.78
40948;BME280;49382;-25.924;28.194;2023-03-22T11:10:36;85189.04;;;29.39;25.17
40948;BME280;49382;-25.924;28.194;2023-03-22T11:15:29;85173.65;;;27.16;24.53
40948;BME280;49382;-25.924;28.194;2023-03-22T11:17:57;85171.82;;;27.99;26.49
40948;BME280;49382;-25.924;28.194;2023-03-22T11:20:19;85169.58;;;27.61;25.94
40948;BME280;49382;-25.924;28.194;2023-03-22T11:22:46;85169.69;;;27.91;25.76
40948;BME280;49382;-25.924;28.194;2023-03-22T11:25:15;85168.25;;;27.35;24.61
40948;BME280;49382;-25.924;28.194;2023-03-22T11:27:36;85153.15;;;28.05;25.19
40948;BME280;49382;-25.924;28.194;2023-03-22T11:30:07;85159.67;;;28.62;23.51
40948;BME280;49382;-25.924;28.194;2023-03-22T11:32:29;85150.56;;;27.74;23.27
40948;BME280;49382;-25.924;28.194;2023-03-22T11:34:58;85148.74;;;27.55;25.13
40948;BME280;49382;-25.924;28.194;2023-03-22T11:37:21;85144.42;;;27.60;26.24
40948;BME280;49382;-25.924;28.194;2023-03-22T11:39:46;85147.11;;;29.70;23.79
40948;BME280;49382;-25.924;28.194;2023-03-22T11:42:18;85146.67;;;27.90;22.43
40948;BME280;49382;-25.924;28.194;2023-03-22T11:44:36;85149.15;;;26.12;24.05
40948;BME280;49382;-25.924;28.194;2023-03-22T11:47:03;85148.43;;;26.78;24.30
40948;BME280;49382;-25.924;28.194;2023-03-22T11:49:35;85131.96;;;27.52;23.46
40948;BME280;49382;-25.924;28.194;2023-03-22T11:51:53;85141.36;;;27.38;23.03
40948;BME280;49382;-25.924;28.194;2023-03-22T11:54:26;85129.21;;;28.69;22.26
40948;BME280;49382;-25.924;28.194;2023-03-22T11:56:47;85125.01;;;26.14;23.68
40948;BME280;49382;-25.924;28.194;2023-03-22T11:59:15;85117.79;;;27.42;23.48
40948;BME280;49382;-25.924;28.194;2023-03-22T12:01:41;85124.81;;;26.87;24.50
40948;BME280;49382;-25.924;28.194;2023-03-22T12:04:06;85121.57;;;27.20;25.23
40948;BME280;49382;-25.924;28.194;2023-03-22T12:06:30;85116.44;;;26.16;24.56
40948;BME280;49382;-25.924;28.194;2023-03-22T12:08:57;85119.14;;;26.40;24.39
40948;BME280;49382;-25.924;28.194;2023-03-22T12:11:25;85114.43;;;28.50;23.01
40948;BME280;49382;-25.924;28.194;2023-03-22T12:13:49;85121.73;;;27.30;23.84
40948;BME280;49382;-25.924;28.194;2023-03-22T12:16:14;85126.67;;;27.16;24.64
40948;BME280;49382;-25.924;28.194;2023-03-22T12:18:43;85125.44;;;27.03;23.10
40948;BME280;49382;-25.924;28.194;2023-03-22T12:21:03;85115.59;;;26.64;23.64
40948;BME280;49382;-25.924;28.194;2023-03-22T12:23:30;85108.91;;;26.86;23.14
40948;BME280;49382;-25.924;28.194;2023-03-22T12:25:58;85104.41;;;28.01;22.51
40948;BME280;49382;-25.924;28.194;2023-03-22T12:28:22;85108.08;;;28.13;23.41
40948;BME280;49382;-25.924;28.194;2023-03-22T12:30:48;85105.70;;;26.86;22.65
40948;BME280;49382;-25.924;28.194;2023-03-22T12:33:16;85102.71;;;26.70;22.91
40948;BME280;49382;-25.924;28.194;2023-03-22T12:35:40;85105.23;;;26.64;21.43
40948;BME280;49382;-25.924;28.194;2023-03-22T12:38:17;85096.37;;;26.65;22.74
40948;BME280;49382;-25.924;28.194;2023-03-22T12:40:31;85095.49;;;26.69;22.62
40948;BME280;49382;-25.924;28.194;2023-03-22T12:43:01;85091.88;;;26.04;24.23
40948;BME280;49382;-25.924;28.194;2023-03-22T12:45:23;85095.30;;;27.74;23.55